createdAt,value
2022-12-15T00:02:35.968Z,25.17
2022-12-15T00:05:22.512Z,25.77
2022-12-15T00:08:08.356Z,25.73
2022-12-15T00:10:54.590Z,26.98
2022-12-15T00:13:40.569Z,25.48
2022-12-15T00:16:26.564Z,25.15
2022-12-15T00:19:13.056Z,26.80
2022-12-15T00:21:58.895Z,26.23
2022-12-15T00:24:44.706Z,25.30
2022-12-15T00:27:35.398Z,26.88
2022-12-15T00:30:22.817Z,26.88
2022-12-15T00:33:08.768Z,27.38
2022-12-15T00:35:54.882Z,25.70
2022-12-15T00:38:41.555Z,26.13
2022-12-15T00:41:09.683Z,25.92
2022-12-15T00:43:38.064Z,25.27
2022-12-15T00:46:25.686Z,26.33
2022-12-15T00:48:53.122Z,25.48
2022-12-15T00:51:20.884Z,25.75
2022-12-15T00:54:06.990Z,25.75
2022-12-15T00:56:52.865Z,26.40
2022-12-15T00:59:38.621Z,24.98
2022-12-15T01:02:24.756Z,26.00
2022-12-15T01:05:10.872Z,26.95
2022-12-15T01:07:56.799Z,26.38
2022-12-15T01:10:42.373Z,25.42
2022-12-15T01:13:32.069Z,25.02
2022-12-15T01:16:18.218Z,26.17
2022-12-15T01:19:04.166Z,25.80
2022-12-15T01:21:32.231Z,26.20
2022-12-15T01:23:59.473Z,26.48
2022-12-15T01:26:26.744Z,27.63
2022-12-15T01:28:53.989Z,27.70
2022-12-15T01:31:21.312Z,25.80
2022-12-15T01:33:48.583Z,26.73
2022-12-15T01:36:16.025Z,26.77
2022-12-15T01:38:43.291Z,27.08
2022-12-15T01:41:12.459Z,27.27
2022-12-15T01:43:41.123Z,27.27
2022-12-15T01:46:11.096Z,26.98
2022-12-15T01:48:46.838Z,28.42
2022-12-15T01:51:33.239Z,27.15
2022-12-15T01:54:10.148Z,26.50
2022-12-15T01:56:40.550Z,26.52
2022-12-15T01:59:09.563Z,27.20
2022-12-15T02:01:37.152Z,26.93
2022-12-15T02:04:04.613Z,26.80
2022-12-15T02:06:31.888Z,26.83
2022-12-15T02:08:59.708Z,26.98
2022-12-15T02:11:51.850Z,27.65
2022-12-15T02:14:26.192Z,25.85
2022-12-15T02:17:06.550Z,27.77
2022-12-15T02:19:55.243Z,27.60
2022-12-15T02:22:25.839Z,26.48
2022-12-15T02:25:05.994Z,27.05
2022-12-15T02:28:10.235Z,26.23
2022-12-15T02:31:31.337Z,28.33
2022-12-15T02:34:06.383Z,28.40
2022-12-15T02:36:39.653Z,26.90
2022-12-15T02:39:07.110Z,28.58
2022-12-15T02:41:45.908Z,29.10
2022-12-15T02:44:19.516Z,28.80
2022-12-15T02:47:02.005Z,29.25
2022-12-15T02:49:51.356Z,29.35
2022-12-15T02:52:36.950Z,27.70
2022-12-15T02:55:19.293Z,29.02
2022-12-15T02:57:59.421Z,28.95
2022-12-15T03:00:28.291Z,28.85
2022-12-15T03:02:56.076Z,29.65
2022-12-15T03:05:24.663Z,28.45
2022-12-15T03:07:53.462Z,28.52
2022-12-15T03:10:23.806Z,29.70
2022-12-15T03:12:51.708Z,30.38
2022-12-15T03:15:19.447Z,30.25
2022-12-15T03:17:47.616Z,29.63
2022-12-15T03:20:15.112Z,29.27
2022-12-15T03:22:42.592Z,28.85
2022-12-15T03:25:10.279Z,29.67
2022-12-15T03:27:37.866Z,29.33
2022-12-15T03:30:05.932Z,29.48
2022-12-15T03:32:33.171Z,28.48
2022-12-15T03:35:01.104Z,28.98
2022-12-15T03:37:28.665Z,28.05
2022-12-15T03:39:56.132Z,28.77
2022-12-15T03:42:42.443Z,29.08
2022-12-15T03:45:09.760Z,27.88
2022-12-15T03:47:41.854Z,29.20
2022-12-15T03:50:10.075Z,30.65
2022-12-15T03:52:37.390Z,29.35
2022-12-15T03:55:05.240Z,28.33
2022-12-15T03:57:32.476Z,29.65
2022-12-15T03:59:59.870Z,30.00
2022-12-15T04:02:27.541Z,27.75
2022-12-15T04:04:55.063Z,30.23
2022-12-15T04:07:22.355Z,29.40
2022-12-15T04:09:49.702Z,29.35
2022-12-15T04:12:16.991Z,28.63
2022-12-15T04:14:44.217Z,30.13
2022-12-15T04:17:12.433Z,29.92
2022-12-15T04:20:00.099Z,31.60
2022-12-15T04:22:27.394Z,30.20
2022-12-15T04:25:13.496Z,31.13
2022-12-15T04:28:01.659Z,29.48
2022-12-15T04:30:49.449Z,28.77
2022-12-15T04:33:35.694Z,30.80
2022-12-15T04:36:22.713Z,28.98
2022-12-15T04:39:09.194Z,30.83
2022-12-15T04:41:55.231Z,29.20
2022-12-15T04:44:41.674Z,30.15
2022-12-15T04:47:27.599Z,28.08
2022-12-15T04:50:14.033Z,29.13
2022-12-15T04:52:59.883Z,28.83
2022-12-15T04:55:45.794Z,30.02
2022-12-15T04:58:31.438Z,28.92
2022-12-15T05:01:17.603Z,29.35
2022-12-15T05:04:03.881Z,29.88
2022-12-15T05:06:49.786Z,29.08
2022-12-15T05:09:35.661Z,29.27
2022-12-15T05:12:21.963Z,29.15
2022-12-15T05:15:07.610Z,29.85
2022-12-15T05:17:53.152Z,29.65
2022-12-15T05:20:39.004Z,29.02
2022-12-15T05:23:24.938Z,29.20
2022-12-15T05:26:10.619Z,29.45
2022-12-15T05:28:56.693Z,29.35
2022-12-15T05:31:42.587Z,28.48
2022-12-15T05:34:09.962Z,30.33
2022-12-15T05:36:37.308Z,29.88
2022-12-15T05:39:04.966Z,29.17
2022-12-15T05:41:32.145Z,28.88
2022-12-15T05:43:59.588Z,28.98
2022-12-15T05:46:26.853Z,29.73
2022-12-15T05:48:54.162Z,29.13
2022-12-15T05:51:21.640Z,30.42
2022-12-15T05:53:49.408Z,29.02
2022-12-15T05:56:16.748Z,30.42
2022-12-15T05:58:45.599Z,28.23
2022-12-15T06:01:15.405Z,29.13
2022-12-15T06:03:42.985Z,29.17
2022-12-15T06:06:11.573Z,28.40
2022-12-15T06:08:41.151Z,28.73
2022-12-15T06:11:10.822Z,28.40
2022-12-15T06:13:38.350Z,29.75
2022-12-15T06:16:26.060Z,28.75
2022-12-15T06:18:55.457Z,28.90
2022-12-15T06:21:29.070Z,29.20
2022-12-15T06:23:57.351Z,30.08
2022-12-15T06:26:27.618Z,28.33
2022-12-15T06:28:59.177Z,29.05
2022-12-15T06:31:26.877Z,28.23
2022-12-15T06:34:01.283Z,27.98
2022-12-15T06:36:30.817Z,28.25
2022-12-15T06:39:00.629Z,28.55
2022-12-15T06:41:30.298Z,28.70
2022-12-15T06:43:58.168Z,30.10
2022-12-15T06:46:26.294Z,29.50
2022-12-15T06:48:53.827Z,28.95
2022-12-15T06:51:21.314Z,29.45
2022-12-15T06:53:48.921Z,29.13
2022-12-15T06:56:30.672Z,29.02
2022-12-15T06:59:01.817Z,29.73
2022-12-15T07:01:30.097Z,28.67
2022-12-15T07:04:00.046Z,30.55
2022-12-15T07:06:28.481Z,29.48
2022-12-15T07:08:56.852Z,29.55
2022-12-15T07:11:24.406Z,30.15
2022-12-15T07:13:53.261Z,30.17
2022-12-15T07:16:24.064Z,29.17
2022-12-15T07:18:51.491Z,28.70
2022-12-15T07:21:18.750Z,30.67
2022-12-15T07:23:54.884Z,30.20
2022-12-15T07:26:23.674Z,29.38
2022-12-15T07:28:51.334Z,29.08
2022-12-15T07:31:18.621Z,29.80
2022-12-15T07:33:48.489Z,29.88
2022-12-15T07:36:16.061Z,30.73
2022-12-15T07:38:49.966Z,29.02
2022-12-15T07:41:19.290Z,29.08
2022-12-15T07:43:47.872Z,29.60
2022-12-15T07:46:16.071Z,31.25
2022-12-15T07:48:43.496Z,32.72
2022-12-15T07:51:15.553Z,30.85
2022-12-15T07:53:47.577Z,31.38
2022-12-15T07:56:15.383Z,29.80
2022-12-15T07:58:42.866Z,29.77
2022-12-15T08:01:12.479Z,29.63
2022-12-15T08:06:12.648Z,29.63
2022-12-15T08:08:40.659Z,30.63
2022-12-15T08:11:11.441Z,31.63
2022-12-15T08:16:27.518Z,27.77
2022-12-15T08:18:57.053Z,29.05
2022-12-15T08:21:24.587Z,30.00
2022-12-15T08:23:51.846Z,29.13
2022-12-15T08:26:22.657Z,29.05
2022-12-15T08:28:54.337Z,31.95
2022-12-15T08:31:23.130Z,29.95
2022-12-15T08:33:50.949Z,30.40
2022-12-15T08:36:19.514Z,28.92
2022-12-15T08:38:47.408Z,30.65
2022-12-15T08:41:16.054Z,30.27
2022-12-15T08:43:48.606Z,30.15
2022-12-15T08:46:18.343Z,31.45
2022-12-15T08:48:46.183Z,31.25
2022-12-15T08:51:13.700Z,30.95
2022-12-15T08:53:41.084Z,30.63
2022-12-15T08:56:15.804Z,30.30
2022-12-15T08:58:43.820Z,29.20
2022-12-15T09:01:23.368Z,29.85
2022-12-15T09:03:53.863Z,30.40
2022-12-15T09:06:27.213Z,29.10
2022-12-15T09:08:59.895Z,28.90
2022-12-15T09:11:29.115Z,28.88
2022-12-15T09:13:57.156Z,31.65
2022-12-15T09:16:26.435Z,29.58
2022-12-15T09:18:55.621Z,29.65
2022-12-15T09:21:26.105Z,30.45
2022-12-15T09:23:55.495Z,29.20
2022-12-15T09:26:23.669Z,31.05
2022-12-15T09:28:52.036Z,29.73
2022-12-15T09:31:22.569Z,29.95
2022-12-15T09:33:51.941Z,30.50
2022-12-15T09:36:19.571Z,31.02
2022-12-15T09:38:46.864Z,29.30
2022-12-15T09:41:14.923Z,30.15
2022-12-15T09:43:54.678Z,28.70
2022-12-15T09:47:01.156Z,30.08
2022-12-15T09:49:37.108Z,29.55
2022-12-15T09:52:10.979Z,30.58
2022-12-15T09:54:41.752Z,31.50
2022-12-15T09:57:28.128Z,29.33
2022-12-15T10:00:07.907Z,29.58
2022-12-15T10:02:57.100Z,30.08
2022-12-15T10:06:07.274Z,30.23
2022-12-15T10:08:23.406Z,30.17
2022-12-15T10:11:01.568Z,30.38
2022-12-15T10:13:35.777Z,31.00
2022-12-15T10:16:16.984Z,30.95
2022-12-15T10:19:01.935Z,30.52
2022-12-15T10:21:50.397Z,29.95
2022-12-15T10:24:44.435Z,30.27
2022-12-15T10:27:20.968Z,29.25
2022-12-15T10:30:11.649Z,31.33
2022-12-15T10:33:14.594Z,30.27
2022-12-15T10:35:43.981Z,28.63
2022-12-15T10:41:25.913Z,30.77
2022-12-15T10:43:54.667Z,29.37
2022-12-15T10:46:24.554Z,29.38
2022-12-15T10:48:54.557Z,29.80
2022-12-15T10:54:05.657Z,31.05
2022-12-15T10:56:34.292Z,30.98
2022-12-15T10:59:21.467Z,30.40
2022-12-15T11:01:49.135Z,30.85
2022-12-15T11:04:32.220Z,30.98
2022-12-15T11:07:02.187Z,31.40
2022-12-15T11:09:37.502Z,29.48
2022-12-15T11:12:36.072Z,29.85
2022-12-15T11:15:23.541Z,32.05
2022-12-15T11:18:01.015Z,28.15
2022-12-15T11:20:33.878Z,30.58
2022-12-15T11:23:38.343Z,30.58
2022-12-15T11:26:18.563Z,30.88
2022-12-15T11:28:56.156Z,29.67
2022-12-15T11:31:41.082Z,29.52
2022-12-15T11:34:14.010Z,29.55
2022-12-15T11:36:53.375Z,29.83
2022-12-15T11:39:26.853Z,30.67
2022-12-15T11:42:03.728Z,30.58
2022-12-15T11:44:42.225Z,32.40
2022-12-15T11:47:33.898Z,35.35
2022-12-15T11:50:24.394Z,30.95
2022-12-15T11:53:07.173Z,29.70
2022-12-15T11:55:49.924Z,28.63
2022-12-15T11:58:36.632Z,28.63
2022-12-15T12:01:03.982Z,28.35
2022-12-15T12:04:02.235Z,26.85
2022-12-15T12:06:35.509Z,28.25
2022-12-15T12:09:13.870Z,26.52
2022-12-15T12:11:54.053Z,27.00
2022-12-15T12:15:09.533Z,26.48
2022-12-15T12:17:55.515Z,26.90
2022-12-15T12:20:25.148Z,27.83
2022-12-15T12:23:02.531Z,27.17
2022-12-15T12:25:31.688Z,25.63
2022-12-15T12:28:02.336Z,26.17
2022-12-15T12:30:35.603Z,26.23
2022-12-15T12:33:14.235Z,25.00
2022-12-15T12:35:56.642Z,24.60
2022-12-15T12:38:31.415Z,25.40
2022-12-15T12:40:59.680Z,25.60
2022-12-15T12:43:42.210Z,25.15
2022-12-15T12:46:24.272Z,24.98
2022-12-15T12:48:57.432Z,22.27
2022-12-15T12:51:36.519Z,24.27
2022-12-15T12:54:30.859Z,25.13
2022-12-15T12:56:58.732Z,23.60
2022-12-15T12:59:29.144Z,23.70
2022-12-15T13:01:57.792Z,22.75
2022-12-15T13:04:28.215Z,23.38
2022-12-15T13:06:55.522Z,23.95
2022-12-15T13:09:25.154Z,23.63
2022-12-15T13:11:58.567Z,23.38
2022-12-15T13:14:44.771Z,23.67
2022-12-15T13:17:39.240Z,23.73
2022-12-15T13:20:17.913Z,22.75
2022-12-15T13:22:45.371Z,23.73
2022-12-15T13:25:36.975Z,23.58
2022-12-15T13:28:39.753Z,23.08
2022-12-15T13:31:16.530Z,24.45
2022-12-15T13:33:50.223Z,25.27
2022-12-15T13:36:39.386Z,23.63
2022-12-15T13:39:12.558Z,22.42
2022-12-15T13:42:31.540Z,23.75
2022-12-15T13:44:48.771Z,22.83
2022-12-15T13:47:23.373Z,23.02
2022-12-15T13:50:02.362Z,23.95
2022-12-15T13:53:08.587Z,21.55
2022-12-15T13:55:28.199Z,21.38
2022-12-15T13:58:17.447Z,20.25
2022-12-15T14:00:53.451Z,19.20
2022-12-15T14:03:21.355Z,19.95
2022-12-15T14:05:57.153Z,20.48
2022-12-15T14:08:28.845Z,20.95
2022-12-15T14:10:58.540Z,20.13
2022-12-15T14:13:29.887Z,19.38
2022-12-15T14:16:04.969Z,19.08
2022-12-15T14:18:34.533Z,20.75
2022-12-15T14:21:05.661Z,19.92
2022-12-15T14:24:11.042Z,18.33
2022-12-15T14:26:32.101Z,19.90
2022-12-15T14:29:05.017Z,18.58
2022-12-15T14:31:32.386Z,18.90
2022-12-15T14:34:07.551Z,16.80
2022-12-15T14:36:35.574Z,18.27
2022-12-15T14:39:11.946Z,17.33
2022-12-15T14:41:44.599Z,18.45
2022-12-15T14:44:32.256Z,16.80
2022-12-15T14:47:08.589Z,17.77
2022-12-15T14:49:41.499Z,16.17
2022-12-15T14:52:34.167Z,17.08
2022-12-15T14:55:22.689Z,16.33
2022-12-15T14:57:52.356Z,15.90
2022-12-15T15:00:35.763Z,16.88
2022-12-15T15:06:11.078Z,14.52
2022-12-15T15:08:50.022Z,13.93
2022-12-15T15:11:33.784Z,13.35
2022-12-15T15:14:06.088Z,12.82
2022-12-15T15:16:34.190Z,12.70
2022-12-15T15:19:02.920Z,12.77
2022-12-15T15:21:33.438Z,12.85
2022-12-15T15:24:04.807Z,13.00
2022-12-15T15:26:32.198Z,11.15
2022-12-15T15:28:59.628Z,11.48
2022-12-15T15:31:41.582Z,11.02
2022-12-15T15:34:09.245Z,10.07
2022-12-15T15:36:38.565Z,10.48
2022-12-15T15:39:24.077Z,10.63
2022-12-15T15:41:51.255Z,9.60
2022-12-15T15:44:18.639Z,9.75
2022-12-15T15:46:51.068Z,9.45
2022-12-15T15:49:20.853Z,9.50
2022-12-15T15:51:48.252Z,9.35
2022-12-15T15:54:18.082Z,9.05
2022-12-15T15:56:45.397Z,10.27
2022-12-15T15:59:14.585Z,10.80
2022-12-15T16:01:42.842Z,10.00
2022-12-15T16:04:10.371Z,10.07
2022-12-15T16:06:42.080Z,10.23
2022-12-15T16:09:14.724Z,9.95
2022-12-15T16:11:41.959Z,10.73
2022-12-15T16:14:12.942Z,11.00
2022-12-15T16:16:42.117Z,11.40
2022-12-15T16:19:12.099Z,11.57
2022-12-15T16:21:40.250Z,11.23
2022-12-15T16:24:10.918Z,11.30
2022-12-15T16:26:38.964Z,12.27
2022-12-15T16:29:16.766Z,12.00
2022-12-15T16:31:45.817Z,12.02
2022-12-15T16:34:16.489Z,11.82
2022-12-15T16:36:44.059Z,11.85
2022-12-15T16:39:37.921Z,13.23
2022-12-15T16:42:06.188Z,11.90
2022-12-15T16:44:33.426Z,12.65
2022-12-15T16:47:00.782Z,12.27
2022-12-15T16:49:33.836Z,13.55
2022-12-15T16:52:05.666Z,14.27
2022-12-15T16:54:32.967Z,13.68
2022-12-15T16:57:00.295Z,13.25
2022-12-15T16:59:35.886Z,14.10
2022-12-15T17:02:27.448Z,13.93
2022-12-15T17:04:55.645Z,14.02
2022-12-15T17:07:24.670Z,14.40
2022-12-15T17:09:52.022Z,13.77
2022-12-15T17:12:19.779Z,14.07
2022-12-15T17:14:47.158Z,13.57
2022-12-15T17:17:16.330Z,13.57
2022-12-15T17:19:58.034Z,14.75
2022-12-15T17:22:26.393Z,13.10
2022-12-15T17:24:53.744Z,13.45
2022-12-15T17:27:28.646Z,13.95
2022-12-15T17:29:56.946Z,13.70
2022-12-15T17:32:24.294Z,13.07
2022-12-15T17:34:51.973Z,15.05
2022-12-15T17:37:19.224Z,15.40
2022-12-15T17:39:50.953Z,15.40
2022-12-15T17:42:20.768Z,15.25
2022-12-15T17:44:48.768Z,15.40
2022-12-15T17:47:16.767Z,16.83
2022-12-15T17:49:44.324Z,16.73
2022-12-15T17:52:31.452Z,17.33
2022-12-15T17:55:00.453Z,18.35
2022-12-15T17:57:31.453Z,16.60
2022-12-15T17:59:59.608Z,17.60
2022-12-15T18:02:27.198Z,16.98
2022-12-15T18:04:55.305Z,16.90
2022-12-15T18:07:23.755Z,16.55
2022-12-15T18:09:52.185Z,16.55
2022-12-15T18:12:26.912Z,17.23
2022-12-15T18:14:55.428Z,16.77
2022-12-15T18:17:23.866Z,17.70
2022-12-15T18:19:51.363Z,17.00
2022-12-15T18:22:22.452Z,18.55
2022-12-15T18:24:51.414Z,16.65
2022-12-15T18:27:25.797Z,17.42
2022-12-15T18:29:53.443Z,17.63
2022-12-15T18:32:23.698Z,20.08
2022-12-15T18:34:52.351Z,18.30
2022-12-15T18:37:21.389Z,19.15
2022-12-15T18:39:49.982Z,19.27
2022-12-15T18:42:21.500Z,18.10
2022-12-15T18:44:51.459Z,18.67
2022-12-15T18:49:46.902Z,17.67
2022-12-15T18:52:18.694Z,17.90
2022-12-15T18:54:50.170Z,18.65
2022-12-15T18:57:36.484Z,17.85
2022-12-15T19:00:13.072Z,18.55
2022-12-15T19:02:41.539Z,18.33
2022-12-15T19:05:27.758Z,18.67
2022-12-15T19:08:10.164Z,18.15
2022-12-15T19:10:56.052Z,18.90
2022-12-15T19:13:26.036Z,19.45
2022-12-15T19:18:42.238Z,19.23
2022-12-15T19:21:42.433Z,18.45
2022-12-15T19:24:49.490Z,20.67
2022-12-15T19:27:23.255Z,18.88
2022-12-15T19:29:50.805Z,18.50
2022-12-15T19:32:18.108Z,18.42
2022-12-15T19:34:45.667Z,18.92
2022-12-15T19:37:28.613Z,19.10
2022-12-15T19:39:57.682Z,18.80
2022-12-15T19:42:30.336Z,19.00
2022-12-15T19:44:57.646Z,19.77
2022-12-15T19:47:25.579Z,18.10
2022-12-15T19:49:53.102Z,17.05
2022-12-15T19:52:22.524Z,17.73
2022-12-15T19:54:50.169Z,18.50
2022-12-15T19:57:18.900Z,18.60
2022-12-15T19:59:46.169Z,18.80
2022-12-15T20:02:17.815Z,18.17
2022-12-15T20:04:45.796Z,19.50
2022-12-15T20:07:27.110Z,18.23
2022-12-15T20:09:56.181Z,17.33
2022-12-15T20:12:23.806Z,19.20
2022-12-15T20:14:52.021Z,19.67
2022-12-15T20:17:19.490Z,19.42
2022-12-15T20:19:46.801Z,19.90
2022-12-15T20:22:15.047Z,18.13
2022-12-15T20:24:42.810Z,18.85
2022-12-15T20:27:14.729Z,19.00
2022-12-15T20:29:42.172Z,17.60
2022-12-15T20:32:19.417Z,17.38
2022-12-15T20:34:47.332Z,18.10
2022-12-15T20:37:18.953Z,17.15
2022-12-15T20:39:46.215Z,16.65
2022-12-15T20:42:19.294Z,16.13
2022-12-15T20:44:46.610Z,15.80
2022-12-15T20:47:22.982Z,15.63
2022-12-15T20:50:01.925Z,16.38
2022-12-15T20:52:29.450Z,16.27
2022-12-15T20:54:56.747Z,14.82
2022-12-15T20:57:24.124Z,15.27
2022-12-15T20:59:52.582Z,14.80
2022-12-15T21:02:23.972Z,15.32
2022-12-15T21:04:51.470Z,14.70
2022-12-15T21:07:18.852Z,15.32
2022-12-15T21:09:46.169Z,13.55
2022-12-15T21:12:21.813Z,13.52
2022-12-15T21:14:49.089Z,13.20
2022-12-15T21:17:25.702Z,13.02
2022-12-15T21:19:53.085Z,12.82
2022-12-15T21:22:24.267Z,13.77
2022-12-15T21:24:53.686Z,11.95
2022-12-15T21:27:22.142Z,12.82
2022-12-15T21:29:52.700Z,11.43
2022-12-15T21:32:21.056Z,13.57
2022-12-15T21:34:49.861Z,11.20
2022-12-15T21:37:22.769Z,11.02
2022-12-15T21:39:50.156Z,11.73
2022-12-15T21:42:18.763Z,11.73
2022-12-15T21:44:46.151Z,11.02
2022-12-15T21:47:47.545Z,11.80
2022-12-15T21:50:18.891Z,12.05
2022-12-15T21:52:46.608Z,10.70
2022-12-15T21:55:18.548Z,12.35
2022-12-15T21:57:45.772Z,12.35
2022-12-15T22:00:15.500Z,11.35
2022-12-15T22:02:43.573Z,12.43
2022-12-15T22:05:18.379Z,10.82
2022-12-15T22:07:45.837Z,11.45
2022-12-15T22:10:13.610Z,11.27
2022-12-15T22:12:43.851Z,11.95
2022-12-15T22:15:19.685Z,11.57
2022-12-15T22:17:48.646Z,11.05
2022-12-15T22:20:20.239Z,11.60
2022-12-15T22:22:47.897Z,12.48
2022-12-15T22:25:28.669Z,11.20
2022-12-15T22:27:56.410Z,11.68
2022-12-15T22:30:25.676Z,12.00
2022-12-15T22:32:53.886Z,11.55
2022-12-15T22:35:24.610Z,12.13
2022-12-15T22:37:56.333Z,12.60
2022-12-15T22:40:24.249Z,11.20
2022-12-15T22:42:55.103Z,11.60
2022-12-15T22:45:24.159Z,12.30
2022-12-15T22:47:52.444Z,12.65
2022-12-15T22:50:22.202Z,13.73
2022-12-15T22:52:50.426Z,11.32
2022-12-15T22:57:50.513Z,12.85
2022-12-15T23:00:18.086Z,11.95
2022-12-15T23:02:46.602Z,11.23
2022-12-15T23:05:17.158Z,12.38
2022-12-15T23:07:44.904Z,12.07
2022-12-15T23:10:34.129Z,12.20
2022-12-15T23:13:01.418Z,13.38
2022-12-15T23:15:47.480Z,12.85
2022-12-15T23:18:15.186Z,13.50
2022-12-15T23:20:42.869Z,13.32
2022-12-15T23:23:10.134Z,13.82
2022-12-15T23:25:37.408Z,13.18
2022-12-15T23:28:05.484Z,12.75
2022-12-15T23:30:32.688Z,13.80
2022-12-15T23:33:00.016Z,13.57
2022-12-15T23:35:27.279Z,13.43
2022-12-15T23:37:54.541Z,12.85
2022-12-15T23:40:22.772Z,12.23
2022-12-15T23:42:50.681Z,11.90
2022-12-15T23:45:18.467Z,12.63
2022-12-15T23:47:45.778Z,12.32
2022-12-15T23:50:13.154Z,11.93
2022-12-15T23:52:40.737Z,13.07
2022-12-15T23:55:10.208Z,13.05
2022-12-15T23:57:38.393Z,12.55
